Time;durP1;ratioP1;P1;durP2;ratioP2;P2;SDS_P1;SDS_P2;PMS_P1;PMS_P2;Temp;Humidity;BMP_temperature;BMP_pressure;BME280_temperature;BME280_humidity;BME280_pressure;Samples;Min_cycle;Max_cycle;Signal;HPM_P1;HPM_P2
2023/01/26 00:00:56;;;;;;;157.45;53.25;;;;;;;;;;4890507;28;98305;-76
2023/01/26 00:03:22;;;;;;;154.85;53.08;;;;;;;;;;4890700;28;99443;-76
2023/01/26 00:05:48;;;;;;;159.82;53.03;;;;;;;;;;4895817;28;100299;-76
2023/01/26 00:08:15;;;;;;;149.55;52.20;;;;;;;;;;4898079;28;98575;-76
2023/01/26 00:10:48;;;;;;;150.35;51.28;;;;;;;;;;4884570;28;100051;-76
2023/01/26 00:13:21;;;;;;;151.65;53.42;;;;;;;;;;4890278;28;98626;-75
2023/01/26 00:15:48;;;;;;;;;;;;;;;;;;4891659;28;99513;-76
2023/01/26 00:18:14;;;;;;;136.02;48.88;;;;;;;;;;4888633;28;129372;-76
2023/01/26 00:20:40;;;;;;;142.63;50.58;;;;;;;;;;4890667;28;98419;-76
2023/01/26 00:23:07;;;;;;;128.93;45.83;;;;;;;;;;4890604;28;99623;-76
2023/01/26 00:25:33;;;;;;;115.63;42.13;;;;;;;;;;4888873;28;100036;-76
2023/01/26 00:28:00;;;;;;;132.52;45.25;;;;;;;;;;4890195;28;98333;-76
2023/01/26 00:30:26;;;;;;;129.10;47.67;;;;;;;;;;4908266;28;99576;-76
2023/01/26 00:32:53;;;;;;;119.45;43.05;;;;;;;;;;4889704;28;98379;-75
2023/01/26 00:35:19;;;;;;;139.40;51.95;;;;;;;;;;4904914;28;100007;-75
2023/01/26 00:37:45;;;;;;;139.50;47.45;;;;;;;;;;4890151;28;98884;-76
2023/01/26 00:40:13;;;;;;;123.82;46.88;;;;;;;;;;4904014;28;98780;-75
2023/01/26 00:42:39;;;;;;;122.25;48.00;;;;;;;;;;4890859;28;98405;-76
2023/01/26 00:45:06;;;;;;;124.00;45.28;;;;;;;;;;4904229;28;100314;-75
2023/01/26 00:47:32;;;;;;;122.75;46.28;;;;;;;;;;4889861;28;99049;-75
2023/01/26 00:49:59;;;;;;;116.30;44.33;;;;;;;;;;4889130;28;98372;-75
2023/01/26 00:52:27;;;;;;;123.28;44.88;;;;;;;;;;4907924;28;101323;-75
2023/01/26 00:54:55;;;;;;;121.82;46.78;;;;;;;;;;4888998;28;98269;-75
2023/01/26 00:57:22;;;;;;;119.53;45.88;;;;;;;;;;4849914;28;1135623;-76
2023/01/26 00:59:48;;;;;;;115.93;44.30;;;;;;;;;;4890334;28;100189;-77
2023/01/26 01:02:15;;;;;;;112.82;45.00;;;;;;;;;;4890548;28;99378;-77
2023/01/26 01:04:41;;;;;;;124.47;45.75;;;;;;;;;;4890724;28;98780;-76
2023/01/26 01:07:09;;;;;;;136.35;46.88;;;;;;;;;;4889011;28;98722;-77
2023/01/26 01:09:36;;;;;;;110.97;43.03;;;;;;;;;;4891024;28;99757;-76
2023/01/26 01:12:02;;;;;;;113.55;45.42;;;;;;;;;;4890398;28;99926;-77
2023/01/26 01:14:29;;;;;;;112.35;42.33;;;;;;;;;;4893142;28;100227;-76
2023/01/26 01:16:55;;;;;;;97.93;38.38;;;;;;;;;;4890338;28;98952;-76
2023/01/26 01:19:21;;;;;;;105.43;40.20;;;;;;;;;;4890999;28;98267;-76
2023/01/26 01:21:48;;;;;;;93.80;40.88;;;;;;;;;;4890307;28;98401;-77
2023/01/26 01:24:14;;;;;;;96.97;37.58;;;;;;;;;;4890615;28;98936;-77
2023/01/26 01:26:41;;;;;;;87.53;37.53;;;;;;;;;;4905376;28;98259;-76
2023/01/26 01:29:11;;;;;;;91.40;37.33;;;;;;;;;;4890269;28;98778;-76
2023/01/26 01:31:37;;;;;;;86.40;34.50;;;;;;;;;;4890886;28;98870;-77
2023/01/26 01:34:03;;;;;;;91.88;38.05;;;;;;;;;;4894095;28;98717;-77
2023/01/26 01:36:30;;;;;;;101.35;40.20;;;;;;;;;;4891627;28;101622;-78
2023/01/26 01:38:56;;;;;;;94.53;37.22;;;;;;;;;;4889209;28;98364;-78
2023/01/26 01:41:23;;;;;;;84.97;36.13;;;;;;;;;;4889982;28;99487;-79
2023/01/26 01:43:51;;;;;;;86.95;36.08;;;;;;;;;;4889962;28;100263;-78
2023/01/26 01:46:23;;;;;;;84.82;32.85;;;;;;;;;;4890873;28;98650;-78
2023/01/26 01:48:57;;;;;;;85.72;37.50;;;;;;;;;;4890969;28;98600;-78
2023/01/26 01:51:29;;;;;;;86.47;35.75;;;;;;;;;;4885670;28;99108;-78
2023/01/26 01:53:58;;;;;;;84.53;35.05;;;;;;;;;;4899078;28;98398;-77
2023/01/26 01:56:26;;;;;;;92.35;38.47;;;;;;;;;;4892869;28;99764;-79
2023/01/26 01:58:53;;;;;;;91.80;35.47;;;;;;;;;;4888697;28;98390;-80
2023/01/26 02:01:20;;;;;;;81.65;33.92;;;;;;;;;;4889110;28;99575;-80
2023/01/26 02:03:47;;;;;;;82.55;35.10;;;;;;;;;;4895641;28;100177;-80
2023/01/26 02:06:16;;;;;;;89.20;34.83;;;;;;;;;;4889998;28;98279;-80
2023/01/26 02:08:52;;;;;;;81.93;34.13;;;;;;;;;;4905107;28;101664;-80
2023/01/26 02:11:24;;;;;;;80.78;33.70;;;;;;;;;;4889743;28;100227;-80
2023/01/26 02:13:51;;;;;;;;;;;;;;;;;;4889648;28;98302;-80
2023/01/26 02:16:18;;;;;;;68.88;29.42;;;;;;;;;;4889823;28;126729;-80
2023/01/26 02:18:45;;;;;;;85.13;35.05;;;;;;;;;;4907259;28;100402;-79
2023/01/26 02:21:17;;;;;;;81.05;33.90;;;;;;;;;;4904947;28;101214;-79
2023/01/26 02:23:55;;;;;;;90.80;35.17;;;;;;;;;;4889668;28;98900;-79
2023/01/26 02:26:25;;;;;;;87.78;34.90;;;;;;;;;;4903987;28;98693;-80
2023/01/26 02:28:52;;;;;;;92.57;36.15;;;;;;;;;;4889176;28;98419;-78
2023/01/26 02:31:18;;;;;;;85.05;35.85;;;;;;;;;;4889159;28;98860;-79
2023/01/26 02:33:46;;;;;;;81.40;33.00;;;;;;;;;;4889926;28;99339;-78
2023/01/26 02:36:20;;;;;;;86.28;34.22;;;;;;;;;;4904081;28;100380;-79
2023/01/26 02:38:52;;;;;;;89.28;37.97;;;;;;;;;;4887333;28;101661;-80
2023/01/26 02:44:06;;;;;;;88.63;36.10;;;;;;;;;;4904115;28;101624;-79
2023/01/26 02:46:32;;;;;;;90.75;35.45;;;;;;;;;;4903663;28;98755;-78
2023/01/26 02:51:45;;;;;;;97.60;35.90;;;;;;;;;;4903548;28;99002;-79
2023/01/26 02:55:21;;;;;;;101.13;35.88;;;;;;;;;;4886455;28;98597;-80
2023/01/26 02:56:58;;;;;;;102.70;38.17;;;;;;;;;;4902640;28;100375;-81
2023/01/26 02:59:26;;;;;;;93.53;36.25;;;;;;;;;;4903000;28;102054;-80
2023/01/26 03:01:54;;;;;;;103.30;37.65;;;;;;;;;;4903650;28;98350;-80
2023/01/26 03:04:20;;;;;;;94.95;37.15;;;;;;;;;;4906947;28;100137;-80
2023/01/26 03:06:47;;;;;;;103.88;36.88;;;;;;;;;;4888781;28;98587;-79
2023/01/26 03:09:13;;;;;;;97.50;39.08;;;;;;;;;;4903442;28;101218;-79
2023/01/26 03:11:42;;;;;;;114.03;38.55;;;;;;;;;;4888748;28;100278;-80
2023/01/26 03:14:13;;;;;;;112.07;39.28;;;;;;;;;;4901154;28;98525;-80
2023/01/26 03:16:39;;;;;;;113.88;39.75;;;;;;;;;;4891050;28;100350;-80
2023/01/26 03:27:26;;;;;;;107.35;36.85;;;;;;;;;;4891384;28;98225;-81
2023/01/26 03:29:55;;;;;;;108.35;36.38;;;;;;;;;;4903613;28;100649;-81
2023/01/26 03:32:21;;;;;;;102.18;37.92;;;;;;;;;;4903676;28;100962;-82
2023/01/26 03:34:49;;;;;;;91.18;35.97;;;;;;;;;;4888905;28;98931;-83
2023/01/26 03:37:21;;;;;;;98.05;35.75;;;;;;;;;;4895932;28;98163;-81
2023/01/26 03:56:43;;;;;;;79.97;32.40;;;;;;;;;;4899152;28;99112;-83
2023/01/26 03:59:15;;;;;;;75.78;32.63;;;;;;;;;;4899422;28;98142;-82
2023/01/26 04:10:03;;;;;;;80.00;31.33;;;;;;;;;;4891138;28;98854;-82
2023/01/26 04:12:29;;;;;;;73.40;30.73;;;;;;;;;;4895089;28;99915;-82
2023/01/26 04:23:37;;;;;;;63.95;31.02;;;;;;;;;;4890020;28;99025;-82
2023/01/26 04:26:05;;;;;;;69.00;30.40;;;;;;;;;;4906447;28;98452;-82
2023/01/26 04:28:31;;;;;;;71.38;31.08;;;;;;;;;;4890497;28;99874;-82
2023/01/26 04:30:57;;;;;;;68.88;29.23;;;;;;;;;;4890814;28;99740;-83
2023/01/26 04:33:24;;;;;;;68.97;31.00;;;;;;;;;;4906338;28;98439;-83
2023/01/26 04:35:50;;;;;;;74.72;31.35;;;;;;;;;;4894829;28;98471;-83
2023/01/26 04:38:16;;;;;;;78.93;31.60;;;;;;;;;;4888875;28;98356;-83
2023/01/26 04:40:43;;;;;;;73.70;32.33;;;;;;;;;;4890063;28;100635;-82
2023/01/26 04:43:10;;;;;;;76.72;30.40;;;;;;;;;;4889327;28;101021;-82
2023/01/26 04:45:37;;;;;;;75.38;30.42;;;;;;;;;;4911418;28;98395;-84
2023/01/26 04:48:04;;;;;;;79.60;30.05;;;;;;;;;;4889709;28;99577;-82
2023/01/26 04:50:31;;;;;;;89.55;31.65;;;;;;;;;;4906225;28;98958;-82
2023/01/26 04:52:57;;;;;;;78.30;31.58;;;;;;;;;;4904607;28;98482;-83
2023/01/26 04:55:23;;;;;;;80.72;31.27;;;;;;;;;;4906455;28;101104;-82
2023/01/26 04:57:50;;;;;;;77.32;31.95;;;;;;;;;;4892927;28;101733;-82
2023/01/26 05:00:18;;;;;;;86.10;32.67;;;;;;;;;;4905545;28;100612;-83
2023/01/26 05:02:44;;;;;;;83.70;32.08;;;;;;;;;;4904934;28;99014;-83
2023/01/26 05:05:12;;;;;;;84.05;32.53;;;;;;;;;;4905419;28;100155;-83
2023/01/26 05:07:40;;;;;;;79.57;32.60;;;;;;;;;;4884769;28;99314;-82
2023/01/26 05:10:06;;;;;;;100.32;34.58;;;;;;;;;;4905374;28;101473;-82
2023/01/26 05:12:51;;;;;;;95.13;31.63;;;;;;;;;;4888702;28;99034;-82
2023/01/26 05:15:28;;;;;;;89.38;33.50;;;;;;;;;;4899002;28;100983;-83
2023/01/26 05:17:59;;;;;;;86.25;33.22;;;;;;;;;;4905464;28;99459;-81
2023/01/26 05:20:34;;;;;;;80.07;31.25;;;;;;;;;;4889673;28;98504;-81
2023/01/26 05:23:12;;;;;;;87.90;32.00;;;;;;;;;;4905524;28;102194;-84
2023/01/26 05:26:02;;;;;;;88.30;33.10;;;;;;;;;;4890525;28;98232;-84
2023/01/26 05:28:31;;;;;;;86.93;33.53;;;;;;;;;;4902332;28;100391;-83
2023/01/26 05:30:57;;;;;;;75.13;30.83;;;;;;;;;;4905166;28;101805;-84
2023/01/26 05:33:24;;;;;;;84.50;32.78;;;;;;;;;;4891179;28;98807;-84
2023/01/26 05:35:51;;;;;;;88.68;32.92;;;;;;;;;;4905024;28;98549;-84
2023/01/26 05:38:18;;;;;;;82.07;32.45;;;;;;;;;;4905265;28;101121;-85
2023/01/26 05:40:46;;;;;;;94.03;33.45;;;;;;;;;;4894088;28;98290;-85
2023/01/26 05:43:13;;;;;;;88.30;30.35;;;;;;;;;;4888543;28;101341;-84
2023/01/26 05:45:49;;;;;;;80.05;31.13;;;;;;;;;;4889319;28;98314;-84
2023/01/26 05:48:16;;;;;;;82.78;33.63;;;;;;;;;;4904020;28;101423;-84
2023/01/26 05:50:44;;;;;;;74.63;30.27;;;;;;;;;;4905092;28;101341;-85
2023/01/26 05:53:30;;;;;;;77.43;30.35;;;;;;;;;;4888499;28;98391;-84
2023/01/26 05:55:57;;;;;;;81.35;31.30;;;;;;;;;;4889983;28;98433;-85
2023/01/26 05:58:25;;;;;;;92.53;32.38;;;;;;;;;;4898611;28;98968;-84
2023/01/26 06:00:53;;;;;;;78.65;30.58;;;;;;;;;;4903128;28;100332;-85
2023/01/26 06:03:24;;;;;;;83.17;30.60;;;;;;;;;;4907286;28;98663;-84
2023/01/26 06:05:54;;;;;;;84.05;30.75;;;;;;;;;;4890199;28;99491;-84
2023/01/26 06:08:39;;;;;;;71.28;29.63;;;;;;;;;;4888552;28;99440;-85
2023/01/26 06:11:24;;;;;;;72.28;30.00;;;;;;;;;;4887519;28;98728;-84
2023/01/26 06:14:19;;;;;;;76.70;29.55;;;;;;;;;;4853618;28;98403;-85
2023/01/26 06:16:46;;;;;;;90.32;32.40;;;;;;;;;;4904158;28;100409;-82
2023/01/26 06:19:14;;;;;;;79.38;31.35;;;;;;;;;;4902806;28;101023;-83
2023/01/26 06:21:43;;;;;;;91.88;32.47;;;;;;;;;;4892909;28;98167;-82
2023/01/26 06:24:10;;;;;;;80.25;31.70;;;;;;;;;;4900120;28;98555;-83
2023/01/26 06:26:38;;;;;;;92.05;31.63;;;;;;;;;;4906688;28;100851;-83
2023/01/26 06:29:04;;;;;;;76.88;29.60;;;;;;;;;;4897374;28;100566;-83
2023/01/26 06:31:35;;;;;;;85.85;32.17;;;;;;;;;;4897631;28;99007;-83
2023/01/26 06:34:04;;;;;;;73.95;30.48;;;;;;;;;;4896302;28;98313;-83
2023/01/26 06:36:33;;;;;;;74.47;30.45;;;;;;;;;;4888868;28;100611;-83
2023/01/26 06:39:02;;;;;;;78.18;30.00;;;;;;;;;;4897503;28;100456;-83
2023/01/26 06:41:29;;;;;;;85.15;30.55;;;;;;;;;;4904430;28;98385;-82
2023/01/26 06:43:55;;;;;;;76.13;30.83;;;;;;;;;;4887013;28;101519;-82
2023/01/26 06:46:21;;;;;;;74.70;32.00;;;;;;;;;;4903487;28;100822;-84
2023/01/26 06:48:51;;;;;;;86.38;31.35;;;;;;;;;;4892045;28;98183;-83
2023/01/26 06:51:18;;;;;;;78.60;31.08;;;;;;;;;;4887631;28;100923;-83
2023/01/26 06:53:51;;;;;;;79.75;29.13;;;;;;;;;;4888885;28;98300;-83
2023/01/26 06:56:31;;;;;;;73.15;29.20;;;;;;;;;;4888073;28;100850;-82
2023/01/26 06:59:13;;;;;;;95.22;31.35;;;;;;;;;;4903611;28;101451;-84
2023/01/26 07:02:16;;;;;;;79.43;28.45;;;;;;;;;;4877886;28;98273;-84
2023/01/26 07:04:42;;;;;;;76.75;29.98;;;;;;;;;;4885461;28;98812;-83
2023/01/26 07:07:09;;;;;;;92.40;32.22;;;;;;;;;;4886046;28;100566;-83
2023/01/26 07:09:35;;;;;;;81.25;30.58;;;;;;;;;;4889695;28;98363;-83
2023/01/26 07:12:01;;;;;;;93.78;32.35;;;;;;;;;;4892688;28;99460;-83
2023/01/26 07:14:28;;;;;;;96.55;33.35;;;;;;;;;;4888966;28;98321;-83
2023/01/26 07:16:54;;;;;;;85.70;32.20;;;;;;;;;;4886440;28;99823;-84
2023/01/26 07:19:21;;;;;;;86.05;31.73;;;;;;;;;;4884298;28;99973;-82
2023/01/26 07:21:47;;;;;;;101.55;32.75;;;;;;;;;;4886354;28;98282;-85
2023/01/26 07:24:14;;;;;;;107.53;32.63;;;;;;;;;;4884564;28;100069;-83
2023/01/26 07:26:40;;;;;;;153.90;33.53;;;;;;;;;;4887090;28;99100;-84
2023/01/26 07:29:06;;;;;;;103.45;32.92;;;;;;;;;;4887736;28;98268;-83
2023/01/26 07:31:33;;;;;;;155.63;34.58;;;;;;;;;;4888531;28;99514;-83
2023/01/26 07:33:59;;;;;;;140.82;33.63;;;;;;;;;;4887683;28;99667;-79
2023/01/26 07:36:26;;;;;;;144.60;34.30;;;;;;;;;;4888496;28;99428;-84
2023/01/26 07:38:52;;;;;;;126.72;31.98;;;;;;;;;;4893744;28;100020;-89
2023/01/26 07:41:18;;;;;;;176.23;35.53;;;;;;;;;;4905229;28;98079;-88
2023/01/26 07:43:45;;;;;;;169.95;33.83;;;;;;;;;;4902278;28;100122;-87
2023/01/26 07:46:11;;;;;;;269.05;38.28;;;;;;;;;;4907226;28;99942;-83
2023/01/26 07:48:39;;;;;;;166.55;35.30;;;;;;;;;;4902137;28;98630;-81
2023/01/26 07:51:08;;;;;;;211.68;35.83;;;;;;;;;;4894879;28;98850;-86
2023/01/26 07:53:38;;;;;;;253.25;39.67;;;;;;;;;;4896125;28;99907;-85
2023/01/26 07:56:05;;;;;;;156.93;36.08;;;;;;;;;;4888063;28;98839;-86
2023/01/26 07:58:32;;;;;;;185.65;35.58;;;;;;;;;;4889702;28;100296;-86
2023/01/26 08:01:09;;;;;;;208.60;35.92;;;;;;;;;;4891756;28;98903;-86
2023/01/26 08:03:36;;;;;;;275.92;40.63;;;;;;;;;;4898197;28;99507;-86
2023/01/26 08:06:03;;;;;;;263.23;38.50;;;;;;;;;;4900825;28;99056;-82
2023/01/26 08:08:30;;;;;;;170.82;34.20;;;;;;;;;;4892065;28;98169;-82
2023/01/26 08:10:57;;;;;;;143.50;35.03;;;;;;;;;;4888734;28;99831;-82
2023/01/26 08:13:23;;;;;;;134.68;34.20;;;;;;;;;;4890354;28;100012;-84
2023/01/26 08:16:01;;;;;;;136.10;33.17;;;;;;;;;;4892534;28;99661;-83
2023/01/26 08:18:28;;;;;;;110.85;32.55;;;;;;;;;;4889966;28;101222;-83
2023/01/26 08:20:55;;;;;;;137.40;35.30;;;;;;;;;;4890829;28;98381;-83
2023/01/26 08:23:21;;;;;;;84.75;29.63;;;;;;;;;;4890459;28;99677;-86
2023/01/26 08:25:48;;;;;;;121.60;33.25;;;;;;;;;;4891789;28;100335;-87
2023/01/26 08:28:14;;;;;;;104.15;32.72;;;;;;;;;;4892133;28;98259;-86
2023/01/26 08:30:40;;;;;;;98.50;29.40;;;;;;;;;;4890788;28;99882;-88
2023/01/26 08:33:07;;;;;;;92.82;30.67;;;;;;;;;;4890904;28;100249;-86
2023/01/26 08:35:33;;;;;;;106.38;32.30;;;;;;;;;;4891353;28;98327;-85
2023/01/26 08:38:00;;;;;;;93.65;31.70;;;;;;;;;;4893561;28;98709;-86
2023/01/26 08:40:26;;;;;;;101.30;32.97;;;;;;;;;;4892249;28;98342;-85
2023/01/26 08:42:53;;;;;;;102.75;33.10;;;;;;;;;;4891161;28;98780;-85
2023/01/26 08:45:20;;;;;;;101.13;32.10;;;;;;;;;;4892830;28;99004;-85
2023/01/26 08:47:50;;;;;;;98.95;30.25;;;;;;;;;;4893164;28;98332;-84
2023/01/26 08:50:16;;;;;;;110.43;32.03;;;;;;;;;;4890996;28;99394;-87
2023/01/26 08:52:43;;;;;;;92.78;30.42;;;;;;;;;;4891362;28;100193;-85
2023/01/26 08:55:09;;;;;;;89.03;30.25;;;;;;;;;;4892127;28;99475;-86
2023/01/26 08:57:36;;;;;;;88.30;30.52;;;;;;;;;;4889261;28;100158;-85
2023/01/26 09:00:02;;;;;;;96.82;30.58;;;;;;;;;;4895131;28;100298;-85
2023/01/26 09:02:29;;;;;;;88.93;29.88;;;;;;;;;;4892354;28;99516;-85
2023/01/26 09:04:55;;;;;;;86.20;28.10;;;;;;;;;;4890267;28;99119;-85
2023/01/26 09:07:22;;;;;;;84.50;28.10;;;;;;;;;;4891070;28;98991;-85
2023/01/26 09:09:48;;;;;;;92.63;28.83;;;;;;;;;;4892851;28;99400;-85
2023/01/26 09:12:14;;;;;;;94.90;29.98;;;;;;;;;;4890375;28;98903;-85
2023/01/26 09:14:41;;;;;;;91.80;29.40;;;;;;;;;;4894636;28;98298;-84
2023/01/26 09:17:07;;;;;;;83.88;24.38;;;;;;;;;;4890719;28;99711;-85
2023/01/26 09:19:33;;;;;;;68.25;23.70;;;;;;;;;;4889933;28;99466;-85
2023/01/26 09:22:00;;;;;;;80.95;23.65;;;;;;;;;;4899856;28;98388;-84
2023/01/26 09:24:26;;;;;;;68.60;20.52;;;;;;;;;;4890361;28;100296;-85
2023/01/26 09:26:53;;;;;;;69.88;21.33;;;;;;;;;;4889696;28;98417;-85
2023/01/26 09:29:19;;;;;;;79.82;20.77;;;;;;;;;;4891095;28;99162;-84
2023/01/26 09:31:45;;;;;;;45.60;15.38;;;;;;;;;;4890830;28;99287;-84
2023/01/26 09:34:12;;;;;;;75.10;19.27;;;;;;;;;;4890703;28;100892;-85
2023/01/26 09:36:38;;;;;;;66.35;17.63;;;;;;;;;;4889558;28;99702;-84
2023/01/26 09:39:07;;;;;;;69.45;17.23;;;;;;;;;;4891252;28;99962;-84
2023/01/26 09:41:41;;;;;;;55.10;15.50;;;;;;;;;;4890527;28;98318;-83
2023/01/26 09:44:22;;;;;;;54.03;13.88;;;;;;;;;;4887687;28;99767;-83
2023/01/26 09:47:01;;;;;;;54.65;12.85;;;;;;;;;;4890633;28;98851;-83
2023/01/26 09:49:35;;;;;;;44.97;11.60;;;;;;;;;;4889751;28;99934;-83
2023/01/26 09:52:05;;;;;;;39.72;12.25;;;;;;;;;;4885586;28;100354;-84
2023/01/26 09:54:31;;;;;;;45.08;11.43;;;;;;;;;;4890743;28;98417;-83
2023/01/26 09:56:59;;;;;;;34.80;8.43;;;;;;;;;;4889447;28;98586;-82
2023/01/26 09:59:37;;;;;;;48.47;11.35;;;;;;;;;;4889822;28;99037;-82
2023/01/26 10:02:14;;;;;;;44.92;9.20;;;;;;;;;;4883075;28;98209;-83
2023/01/26 10:04:42;;;;;;;35.65;6.93;;;;;;;;;;4893146;28;99454;-83
2023/01/26 10:07:10;;;;;;;44.53;8.93;;;;;;;;;;4889579;28;98261;-84
2023/01/26 10:09:49;;;;;;;33.63;5.90;;;;;;;;;;4889563;28;99809;-83
2023/01/26 10:12:18;;;;;;;23.67;3.78;;;;;;;;;;4889445;28;99145;-82
2023/01/26 10:14:52;;;;;;;29.73;4.60;;;;;;;;;;4883850;28;98299;-82
2023/01/26 10:17:27;;;;;;;31.05;4.25;;;;;;;;;;4883874;28;99576;-82
2023/01/26 10:19:55;;;;;;;36.17;4.68;;;;;;;;;;4889538;28;99738;-80
2023/01/26 10:22:37;;;;;;;31.58;4.63;;;;;;;;;;4889031;28;99369;-81
2023/01/26 10:25:12;;;;;;;38.47;6.63;;;;;;;;;;4889011;28;99956;-80
2023/01/26 10:27:38;;;;;;;27.92;4.63;;;;;;;;;;4890832;28;100232;-81
2023/01/26 10:30:10;;;;;;;42.53;5.53;;;;;;;;;;4887611;28;98469;-81
2023/01/26 10:32:37;;;;;;;31.83;4.07;;;;;;;;;;4890061;28;99796;-80
2023/01/26 10:35:04;;;;;;;36.95;5.55;;;;;;;;;;4889189;28;98664;-80
2023/01/26 10:37:30;;;;;;;28.00;4.55;;;;;;;;;;4888008;28;99613;-82
2023/01/26 10:39:58;;;;;;;33.35;5.38;;;;;;;;;;4889366;28;99166;-76
2023/01/26 10:42:31;;;;;;;34.88;4.45;;;;;;;;;;4889446;28;98308;-82
2023/01/26 10:45:00;;;;;;;25.30;4.30;;;;;;;;;;4889550;28;99688;-82
2023/01/26 10:47:27;;;;;;;34.88;4.75;;;;;;;;;;4890702;28;100576;-82
2023/01/26 10:50:12;;;;;;;27.85;4.28;;;;;;;;;;4895433;28;98308;-82
2023/01/26 10:52:54;;;;;;;28.45;4.50;;;;;;;;;;4890347;28;99848;-80
2023/01/26 10:55:21;;;;;;;24.53;3.73;;;;;;;;;;4889633;28;98308;-80
2023/01/26 10:57:47;;;;;;;27.40;5.30;;;;;;;;;;4888374;28;98926;-80
2023/01/26 11:00:20;;;;;;;21.60;3.50;;;;;;;;;;4889424;28;99939;-81
2023/01/26 11:02:50;;;;;;;37.67;4.13;;;;;;;;;;4891019;28;98330;-80
2023/01/26 11:05:26;;;;;;;30.83;4.68;;;;;;;;;;4889164;28;98738;-80
2023/01/26 11:07:57;;;;;;;31.08;4.15;;;;;;;;;;4890485;28;99245;-81
2023/01/26 11:10:34;;;;;;;24.33;3.92;;;;;;;;;;4889750;28;98375;-80
2023/01/26 11:13:13;;;;;;;27.70;4.15;;;;;;;;;;4895063;28;98592;-80
2023/01/26 11:15:40;;;;;;;23.83;4.47;;;;;;;;;;4893288;28;98345;-80
2023/01/26 11:18:12;;;;;;;29.05;5.20;;;;;;;;;;4891868;28;98917;-80
2023/01/26 11:20:47;;;;;;;28.67;5.13;;;;;;;;;;4887354;28;99109;-79
2023/01/26 11:23:18;;;;;;;30.73;5.10;;;;;;;;;;4892596;28;98255;-78
2023/01/26 11:25:47;;;;;;;17.05;2.90;;;;;;;;;;4892290;28;99602;-79
2023/01/26 11:28:49;;;;;;;25.50;4.20;;;;;;;;;;4894996;28;99532;-78
2023/01/26 11:31:33;;;;;;;22.52;4.72;;;;;;;;;;4836187;29;98382;-79
2023/01/26 11:34:05;;;;;;;13.38;2.72;;;;;;;;;;4889850;28;98712;-80
2023/01/26 11:36:41;;;;;;;25.35;3.55;;;;;;;;;;4897552;28;100037;-80
2023/01/26 11:39:23;;;;;;;15.00;2.78;;;;;;;;;;4893041;28;99257;-78
2023/01/26 11:42:18;;;;;;;24.60;3.92;;;;;;;;;;4891993;28;99326;-79
2023/01/26 11:44:45;;;;;;;22.80;3.55;;;;;;;;;;4871920;28;98381;-78
2023/01/26 11:47:17;;;;;;;21.58;5.13;;;;;;;;;;4891460;28;99904;-78
2023/01/26 11:49:52;;;;;;;30.80;3.97;;;;;;;;;;4891525;28;99640;-79
2023/01/26 11:52:18;;;;;;;15.68;3.45;;;;;;;;;;4891983;28;99302;-78
2023/01/26 11:54:50;;;;;;;17.40;3.70;;;;;;;;;;4890873;28;98603;-78
2023/01/26 11:57:32;;;;;;;21.85;3.83;;;;;;;;;;4883434;28;100913;-77
2023/01/26 12:00:13;;;;;;;18.48;3.25;;;;;;;;;;4886735;28;98676;-77
2023/01/26 12:03:03;;;;;;;19.92;4.22;;;;;;;;;;4886681;28;99960;-78
2023/01/26 12:05:35;;;;;;;16.95;3.85;;;;;;;;;;4885942;28;98328;-78
2023/01/26 12:08:22;;;;;;;37.03;3.97;;;;;;;;;;4889643;28;100028;-78
2023/01/26 12:10:54;;;;;;;17.05;3.13;;;;;;;;;;4886324;28;100222;-76
2023/01/26 12:13:23;;;;;;;18.63;4.50;;;;;;;;;;4891057;28;98444;-77
2023/01/26 12:15:56;;;;;;;22.48;3.90;;;;;;;;;;4890507;28;99088;-78
2023/01/26 12:18:28;;;;;;;18.88;4.90;;;;;;;;;;4890524;28;100116;-77
2023/01/26 12:21:14;;;;;;;20.63;3.55;;;;;;;;;;4889950;28;100310;-76
2023/01/26 12:23:41;;;;;;;22.88;4.22;;;;;;;;;;4883321;28;99026;-76
2023/01/26 12:26:11;;;;;;;18.30;2.65;;;;;;;;;;4886454;28;99629;-77
2023/01/26 12:28:49;;;;;;;25.05;3.83;;;;;;;;;;4891321;28;99367;-77
2023/01/26 12:31:18;;;;;;;18.98;2.65;;;;;;;;;;4890072;28;100366;-77
2023/01/26 12:33:46;;;;;;;16.48;2.88;;;;;;;;;;4889178;28;98332;-77
2023/01/26 12:36:32;;;;;;;21.55;3.50;;;;;;;;;;4889106;28;99725;-77
2023/01/26 12:39:22;;;;;;;13.82;2.78;;;;;;;;;;4889855;28;98925;-77
2023/01/26 12:41:59;;;;;;;28.55;4.68;;;;;;;;;;4885168;28;98325;-77
2023/01/26 12:44:29;;;;;;;10.80;2.70;;;;;;;;;;4887386;28;99808;-76
2023/01/26 12:47:00;;;;;;;20.38;3.85;;;;;;;;;;4890080;28;98451;-76
2023/01/26 12:49:36;;;;;;;35.33;4.47;;;;;;;;;;4890674;28;99544;-76
2023/01/26 12:52:15;;;;;;;37.28;4.10;;;;;;;;;;4887858;28;99353;-76
2023/01/26 12:54:44;;;;;;;33.28;6.15;;;;;;;;;;4891585;28;98696;-76
2023/01/26 12:57:13;;;;;;;10.85;2.83;;;;;;;;;;4889427;28;99495;-76
2023/01/26 12:59:41;;;;;;;18.13;2.97;;;;;;;;;;4890612;28;99006;-76
2023/01/26 13:02:14;;;;;;;26.30;3.38;;;;;;;;;;4888812;28;98260;-77
2023/01/26 13:04:42;;;;;;;13.15;2.35;;;;;;;;;;4887565;28;98848;-77
2023/01/26 13:07:37;;;;;;;22.05;3.97;;;;;;;;;;4893304;28;100019;-76
2023/01/26 13:10:13;;;;;;;18.63;4.03;;;;;;;;;;4877867;28;99071;-76
2023/01/26 13:12:47;;;;;;;21.20;3.78;;;;;;;;;;4888587;28;98708;-78
2023/01/26 13:15:15;;;;;;;29.23;2.95;;;;;;;;;;4887873;28;98442;-76
2023/01/26 13:17:49;;;;;;;16.83;2.92;;;;;;;;;;4888357;28;99424;-75
2023/01/26 13:20:26;;;;;;;16.90;3.15;;;;;;;;;;4887379;28;100077;-75
2023/01/26 13:22:53;;;;;;;13.68;2.67;;;;;;;;;;4890831;28;98888;-77
2023/01/26 13:25:30;;;;;;;17.35;3.10;;;;;;;;;;4886835;28;99606;-77
2023/01/26 13:28:01;;;;;;;19.30;3.20;;;;;;;;;;4888656;28;100076;-76
2023/01/26 13:30:30;;;;;;;10.73;2.95;;;;;;;;;;4889944;28;99731;-76
2023/01/26 13:33:15;;;;;;;17.45;2.55;;;;;;;;;;4888008;28;100858;-76
2023/01/26 13:35:43;;;;;;;17.02;3.10;;;;;;;;;;4885025;28;98757;-77
2023/01/26 13:38:13;;;;;;;19.27;3.28;;;;;;;;;;4888363;28;99626;-76
2023/01/26 13:40:45;;;;;;;28.80;4.78;;;;;;;;;;4885792;28;101826;-77
2023/01/26 13:43:20;;;;;;;18.50;2.67;;;;;;;;;;4887006;28;98172;-76
2023/01/26 13:45:59;;;;;;;13.32;2.90;;;;;;;;;;4887247;28;99789;-77
2023/01/26 13:48:28;;;;;;;25.00;3.50;;;;;;;;;;4884867;28;99628;-76
2023/01/26 13:50:58;;;;;;;15.10;2.85;;;;;;;;;;4886560;28;98379;-75
2023/01/26 13:53:28;;;;;;;11.75;2.30;;;;;;;;;;4890985;28;100288;-75
2023/01/26 13:55:57;;;;;;;16.08;3.08;;;;;;;;;;4886194;28;99394;-74
2023/01/26 13:58:24;;;;;;;16.70;3.38;;;;;;;;;;4888829;28;98528;-76
2023/01/26 14:01:01;;;;;;;14.70;3.13;;;;;;;;;;4887382;28;99196;-76
2023/01/26 14:03:27;;;;;;;17.63;3.55;;;;;;;;;;4890231;28;98168;-76
2023/01/26 14:05:55;;;;;;;21.58;3.38;;;;;;;;;;4889390;28;100082;-75
2023/01/26 14:08:22;;;;;;;9.13;2.20;;;;;;;;;;4890274;28;99042;-77
2023/01/26 14:10:48;;;;;;;13.75;2.63;;;;;;;;;;4888533;28;100699;-75
2023/01/26 14:13:38;;;;;;;12.48;2.65;;;;;;;;;;4889015;28;99020;-75
2023/01/26 14:16:05;;;;;;;25.88;3.15;;;;;;;;;;4888703;28;98277;-76
2023/01/26 14:18:31;;;;;;;15.35;2.60;;;;;;;;;;4888865;28;99496;-75
2023/01/26 14:20:59;;;;;;;25.35;3.15;;;;;;;;;;4889297;28;98883;-75
2023/01/26 14:23:27;;;;;;;8.80;2.05;;;;;;;;;;4889109;28;98314;-76
2023/01/26 14:25:57;;;;;;;14.32;3.17;;;;;;;;;;4888992;28;99591;-76
2023/01/26 14:28:29;;;;;;;13.13;2.83;;;;;;;;;;4889723;28;100029;-76
2023/01/26 14:31:00;;;;;;;12.98;2.78;;;;;;;;;;4893916;28;99776;-75
2023/01/26 14:33:26;;;;;;;16.35;3.05;;;;;;;;;;4884363;28;99040;-76
2023/01/26 14:35:54;;;;;;;17.23;3.75;;;;;;;;;;4891786;28;100076;-76
2023/01/26 14:38:20;;;;;;;17.08;2.83;;;;;;;;;;4889752;28;99556;-75
2023/01/26 14:40:48;;;;;;;16.23;3.47;;;;;;;;;;4883355;28;100050;-77
2023/01/26 14:43:15;;;;;;;15.82;2.65;;;;;;;;;;4887934;28;98734;-75
2023/01/26 14:45:54;;;;;;;12.38;2.10;;;;;;;;;;4889729;28;100943;-76
2023/01/26 14:48:22;;;;;;;16.10;3.45;;;;;;;;;;4888919;28;100149;-76
2023/01/26 14:50:49;;;;;;;15.73;3.20;;;;;;;;;;4888524;28;98714;-76
2023/01/26 14:53:20;;;;;;;17.50;3.20;;;;;;;;;;4889048;28;99588;-76
2023/01/26 14:55:46;;;;;;;14.50;2.95;;;;;;;;;;4888714;28;99969;-75
2023/01/26 14:58:33;;;;;;;18.73;2.83;;;;;;;;;;4891155;28;98418;-76
2023/01/26 15:01:00;;;;;;;22.48;3.25;;;;;;;;;;4889098;28;100046;-76
2023/01/26 15:03:28;;;;;;;16.92;2.50;;;;;;;;;;4889113;28;98359;-75
2023/01/26 15:06:14;;;;;;;17.33;3.00;;;;;;;;;;4888325;28;99480;-76
2023/01/26 15:08:41;;;;;;;11.35;1.88;;;;;;;;;;4882800;28;100370;-75
2023/01/26 15:13:54;;;;;;;9.68;2.05;;;;;;;;;;4890997;28;100737;-76
2023/01/26 15:16:22;;;;;;;18.67;3.58;;;;;;;;;;4888942;28;99189;-76
2023/01/26 15:18:58;;;;;;;15.18;2.55;;;;;;;;;;4890571;28;98423;-77
2023/01/26 15:21:32;;;;;;;14.50;2.10;;;;;;;;;;4888862;28;98380;-77
2023/01/26 15:23:59;;;;;;;19.38;3.42;;;;;;;;;;4888768;28;98274;-77